sensor_id;sensor_type;location;lat;lon;timestamp;P1;durP1;ratioP1;P2;durP2;ratioP2
66485;SDS011;53303;47.476;8.084;2023-11-19T00:01:04;7.97;;;0.93;;
66485;SDS011;53303;47.476;8.084;2023-11-19T00:03:30;5.35;;;1.20;;
66485;SDS011;53303;47.476;8.084;2023-11-19T00:05:56;7.45;;;1.30;;
66485;SDS011;53303;47.476;8.084;2023-11-19T00:08:21;6.78;;;1.10;;
66485;SDS011;53303;47.476;8.084;2023-11-19T00:10:46;7.57;;;1.23;;
66485;SDS011;53303;47.476;8.084;2023-11-19T00:13:16;4.78;;;1.30;;
66485;SDS011;53303;47.476;8.084;2023-11-19T00:15:41;4.78;;;1.20;;
66485;SDS011;53303;47.476;8.084;2023-11-19T00:18:10;5.95;;;1.23;;
66485;SDS011;53303;47.476;8.084;2023-11-19T00:20:39;9.55;;;1.17;;
66485;SDS011;53303;47.476;8.084;2023-11-19T00:23:04;5.13;;;1.02;;
66485;SDS011;53303;47.476;8.084;2023-11-19T00:25:30;5.25;;;1.25;;
66485;SDS011;53303;47.476;8.084;2023-11-19T00:27:55;4.65;;;1.13;;
66485;SDS011;53303;47.476;8.084;2023-11-19T00:30:21;8.32;;;1.10;;
66485;SDS011;53303;47.476;8.084;2023-11-19T00:32:47;7.28;;;1.20;;
66485;SDS011;53303;47.476;8.084;2023-11-19T00:35:12;7.13;;;1.42;;
66485;SDS011;53303;47.476;8.084;2023-11-19T00:37:40;9.30;;;1.25;;
66485;SDS011;53303;47.476;8.084;2023-11-19T00:40:07;9.02;;;1.20;;
66485;SDS011;53303;47.476;8.084;2023-11-19T00:42:35;7.38;;;1.33;;
66485;SDS011;53303;47.476;8.084;2023-11-19T00:45:00;6.55;;;1.30;;
66485;SDS011;53303;47.476;8.084;2023-11-19T00:47:26;9.85;;;1.75;;
66485;SDS011;53303;47.476;8.084;2023-11-19T00:49:56;6.80;;;1.00;;
66485;SDS011;53303;47.476;8.084;2023-11-19T00:52:21;11.85;;;1.10;;
66485;SDS011;53303;47.476;8.084;2023-11-19T00:54:47;8.25;;;1.48;;
66485;SDS011;53303;47.476;8.084;2023-11-19T00:57:12;5.53;;;1.30;;
66485;SDS011;53303;47.476;8.084;2023-11-19T00:59:43;5.55;;;1.15;;
66485;SDS011;53303;47.476;8.084;2023-11-19T01:02:08;4.00;;;1.20;;
66485;SDS011;53303;47.476;8.084;2023-11-19T01:04:34;7.65;;;1.40;;
66485;SDS011;53303;47.476;8.084;2023-11-19T01:07:03;7.68;;;1.33;;
66485;SDS011;53303;47.476;8.084;2023-11-19T01:09:30;4.07;;;1.13;;
66485;SDS011;53303;47.476;8.084;2023-11-19T01:12:00;6.72;;;1.33;;
66485;SDS011;53303;47.476;8.084;2023-11-19T01:14:26;5.18;;;1.13;;
66485;SDS011;53303;47.476;8.084;2023-11-19T01:16:52;7.55;;;1.40;;
66485;SDS011;53303;47.476;8.084;2023-11-19T01:19:19;8.27;;;1.55;;
66485;SDS011;53303;47.476;8.084;2023-11-19T01:21:44;5.30;;;1.20;;
66485;SDS011;53303;47.476;8.084;2023-11-19T01:24:10;6.22;;;1.20;;
66485;SDS011;53303;47.476;8.084;2023-11-19T01:26:39;6.95;;;1.13;;
66485;SDS011;53303;47.476;8.084;2023-11-19T01:29:10;5.25;;;1.23;;
66485;SDS011;53303;47.476;8.084;2023-11-19T01:31:45;6.28;;;1.40;;
66485;SDS011;53303;47.476;8.084;2023-11-19T01:34:16;8.75;;;1.52;;
66485;SDS011;53303;47.476;8.084;2023-11-19T01:36:41;9.73;;;1.48;;
66485;SDS011;53303;47.476;8.084;2023-11-19T01:39:07;9.55;;;1.33;;
66485;SDS011;53303;47.476;8.084;2023-11-19T01:41:35;7.22;;;1.58;;
66485;SDS011;53303;47.476;8.084;2023-11-19T01:44:01;8.93;;;1.50;;
66485;SDS011;53303;47.476;8.084;2023-11-19T01:46:27;5.50;;;1.30;;
66485;SDS011;53303;47.476;8.084;2023-11-19T01:48:53;6.97;;;1.48;;
66485;SDS011;53303;47.476;8.084;2023-11-19T01:51:19;7.13;;;1.20;;
66485;SDS011;53303;47.476;8.084;2023-11-19T01:53:45;5.65;;;1.13;;
66485;SDS011;53303;47.476;8.084;2023-11-19T01:56:14;9.93;;;1.55;;
66485;SDS011;53303;47.476;8.084;2023-11-19T01:58:41;6.53;;;1.30;;
66485;SDS011;53303;47.476;8.084;2023-11-19T02:01:08;6.93;;;1.58;;
66485;SDS011;53303;47.476;8.084;2023-11-19T02:03:34;9.10;;;1.00;;
66485;SDS011;53303;47.476;8.084;2023-11-19T02:06:02;6.57;;;1.10;;
66485;SDS011;53303;47.476;8.084;2023-11-19T02:08:30;6.75;;;1.13;;
66485;SDS011;53303;47.476;8.084;2023-11-19T02:10:56;5.28;;;1.30;;
66485;SDS011;53303;47.476;8.084;2023-11-19T02:13:23;9.20;;;1.25;;
66485;SDS011;53303;47.476;8.084;2023-11-19T02:15:51;4.63;;;1.17;;
66485;SDS011;53303;47.476;8.084;2023-11-19T02:18:21;5.30;;;1.15;;
66485;SDS011;53303;47.476;8.084;2023-11-19T02:20:47;6.78;;;1.38;;
66485;SDS011;53303;47.476;8.084;2023-11-19T02:23:14;6.43;;;1.30;;
66485;SDS011;53303;47.476;8.084;2023-11-19T02:25:40;5.18;;;1.20;;
66485;SDS011;53303;47.476;8.084;2023-11-19T02:28:07;7.07;;;1.33;;
66485;SDS011;53303;47.476;8.084;2023-11-19T02:30:33;6.03;;;1.10;;
66485;SDS011;53303;47.476;8.084;2023-11-19T02:32:59;7.20;;;1.25;;
66485;SDS011;53303;47.476;8.084;2023-11-19T02:35:28;5.60;;;1.25;;
66485;SDS011;53303;47.476;8.084;2023-11-19T02:37:56;5.32;;;0.95;;
66485;SDS011;53303;47.476;8.084;2023-11-19T02:40:23;6.60;;;1.20;;
66485;SDS011;53303;47.476;8.084;2023-11-19T02:42:52;9.77;;;1.50;;
66485;SDS011;53303;47.476;8.084;2023-11-19T02:45:18;5.82;;;1.08;;
66485;SDS011;53303;47.476;8.084;2023-11-19T02:47:43;7.45;;;1.27;;
66485;SDS011;53303;47.476;8.084;2023-11-19T02:50:11;6.65;;;1.50;;
66485;SDS011;53303;47.476;8.084;2023-11-19T02:52:43;5.68;;;1.20;;
66485;SDS011;53303;47.476;8.084;2023-11-19T02:55:10;5.70;;;1.17;;
66485;SDS011;53303;47.476;8.084;2023-11-19T02:57:41;6.18;;;1.38;;
66485;SDS011;53303;47.476;8.084;2023-11-19T03:02:49;7.05;;;1.38;;
66485;SDS011;53303;47.476;8.084;2023-11-19T03:05:42;6.15;;;1.15;;
66485;SDS011;53303;47.476;8.084;2023-11-19T03:08:10;6.80;;;1.38;;
66485;SDS011;53303;47.476;8.084;2023-11-19T03:10:37;4.05;;;1.23;;
66485;SDS011;53303;47.476;8.084;2023-11-19T03:13:05;7.72;;;1.50;;
66485;SDS011;53303;47.476;8.084;2023-11-19T03:15:36;8.95;;;1.40;;
66485;SDS011;53303;47.476;8.084;2023-11-19T03:18:03;5.72;;;1.13;;
66485;SDS011;53303;47.476;8.084;2023-11-19T03:20:29;5.35;;;1.27;;
66485;SDS011;53303;47.476;8.084;2023-11-19T03:22:59;6.55;;;1.08;;
66485;SDS011;53303;47.476;8.084;2023-11-19T03:25:26;10.68;;;1.42;;
66485;SDS011;53303;47.476;8.084;2023-11-19T03:30:24;7.65;;;1.23;;
66485;SDS011;53303;47.476;8.084;2023-11-19T03:32:51;9.32;;;1.63;;
66485;SDS011;53303;47.476;8.084;2023-11-19T03:35:17;8.98;;;1.60;;
66485;SDS011;53303;47.476;8.084;2023-11-19T03:37:42;7.93;;;1.20;;
66485;SDS011;53303;47.476;8.084;2023-11-19T03:40:10;5.47;;;1.30;;
66485;SDS011;53303;47.476;8.084;2023-11-19T03:42:36;4.30;;;1.20;;
66485;SDS011;53303;47.476;8.084;2023-11-19T03:45:02;5.10;;;1.08;;
66485;SDS011;53303;47.476;8.084;2023-11-19T03:47:30;7.53;;;1.58;;
66485;SDS011;53303;47.476;8.084;2023-11-19T03:49:58;4.45;;;1.00;;
66485;SDS011;53303;47.476;8.084;2023-11-19T03:52:24;7.30;;;1.27;;
66485;SDS011;53303;47.476;8.084;2023-11-19T03:54:52;8.00;;;1.25;;
66485;SDS011;53303;47.476;8.084;2023-11-19T03:57:20;5.32;;;1.25;;
66485;SDS011;53303;47.476;8.084;2023-11-19T03:59:50;4.53;;;1.10;;
66485;SDS011;53303;47.476;8.084;2023-11-19T04:02:16;6.97;;;1.10;;
66485;SDS011;53303;47.476;8.084;2023-11-19T04:04:42;8.63;;;1.33;;
66485;SDS011;53303;47.476;8.084;2023-11-19T04:07:07;4.10;;;0.98;;
66485;SDS011;53303;47.476;8.084;2023-11-19T04:09:33;5.80;;;1.02;;
66485;SDS011;53303;47.476;8.084;2023-11-19T04:12:02;7.68;;;1.20;;
66485;SDS011;53303;47.476;8.084;2023-11-19T04:14:28;5.15;;;1.15;;
66485;SDS011;53303;47.476;8.084;2023-11-19T04:16:54;6.07;;;1.27;;
66485;SDS011;53303;47.476;8.084;2023-11-19T04:19:19;5.10;;;1.10;;
66485;SDS011;53303;47.476;8.084;2023-11-19T04:21:45;7.35;;;1.23;;
66485;SDS011;53303;47.476;8.084;2023-11-19T04:24:11;4.18;;;1.00;;
66485;SDS011;53303;47.476;8.084;2023-11-19T04:26:44;8.15;;;1.10;;
66485;SDS011;53303;47.476;8.084;2023-11-19T04:29:13;6.10;;;1.05;;
66485;SDS011;53303;47.476;8.084;2023-11-19T04:31:42;5.75;;;1.17;;
66485;SDS011;53303;47.476;8.084;2023-11-19T04:34:09;5.63;;;1.13;;
66485;SDS011;53303;47.476;8.084;2023-11-19T04:36:34;5.05;;;1.27;;
66485;SDS011;53303;47.476;8.084;2023-11-19T04:39:02;6.28;;;1.20;;
66485;SDS011;53303;47.476;8.084;2023-11-19T04:41:35;7.40;;;1.23;;
66485;SDS011;53303;47.476;8.084;2023-11-19T04:44:01;5.07;;;1.10;;
66485;SDS011;53303;47.476;8.084;2023-11-19T04:46:30;7.55;;;1.17;;
66485;SDS011;53303;47.476;8.084;2023-11-19T04:48:55;6.90;;;1.00;;
66485;SDS011;53303;47.476;8.084;2023-11-19T04:51:20;7.15;;;1.13;;
66485;SDS011;53303;47.476;8.084;2023-11-19T04:53:46;3.67;;;0.95;;
66485;SDS011;53303;47.476;8.084;2023-11-19T04:56:11;7.75;;;1.20;;
66485;SDS011;53303;47.476;8.084;2023-11-19T04:58:42;6.60;;;1.00;;
66485;SDS011;53303;47.476;8.084;2023-11-19T05:01:12;7.13;;;1.25;;
66485;SDS011;53303;47.476;8.084;2023-11-19T05:03:40;4.68;;;1.00;;
66485;SDS011;53303;47.476;8.084;2023-11-19T05:06:06;7.93;;;1.13;;
66485;SDS011;53303;47.476;8.084;2023-11-19T05:08:35;6.22;;;1.30;;
66485;SDS011;53303;47.476;8.084;2023-11-19T05:11:00;6.40;;;1.20;;
66485;SDS011;53303;47.476;8.084;2023-11-19T05:13:26;6.05;;;1.10;;
66485;SDS011;53303;47.476;8.084;2023-11-19T05:15:54;3.33;;;0.90;;
66485;SDS011;53303;47.476;8.084;2023-11-19T05:18:19;3.88;;;0.93;;
66485;SDS011;53303;47.476;8.084;2023-11-19T05:20:45;3.42;;;0.90;;
66485;SDS011;53303;47.476;8.084;2023-11-19T05:23:13;3.78;;;1.02;;
66485;SDS011;53303;47.476;8.084;2023-11-19T05:25:38;5.70;;;1.08;;
66485;SDS011;53303;47.476;8.084;2023-11-19T05:28:04;4.20;;;0.70;;
66485;SDS011;53303;47.476;8.084;2023-11-19T05:30:33;6.30;;;1.10;;
66485;SDS011;53303;47.476;8.084;2023-11-19T05:32:58;5.75;;;1.00;;
66485;SDS011;53303;47.476;8.084;2023-11-19T05:35:23;5.05;;;1.20;;
66485;SDS011;53303;47.476;8.084;2023-11-19T05:37:49;4.78;;;1.27;;
66485;SDS011;53303;47.476;8.084;2023-11-19T05:40:15;5.60;;;1.10;;
66485;SDS011;53303;47.476;8.084;2023-11-19T05:42:40;4.88;;;1.23;;
66485;SDS011;53303;47.476;8.084;2023-11-19T05:45:06;2.65;;;0.80;;
66485;SDS011;53303;47.476;8.084;2023-11-19T05:47:33;7.32;;;1.10;;
66485;SDS011;53303;47.476;8.084;2023-11-19T05:49:58;6.25;;;0.90;;
66485;SDS011;53303;47.476;8.084;2023-11-19T05:52:24;5.78;;;0.93;;
66485;SDS011;53303;47.476;8.084;2023-11-19T05:54:49;5.13;;;0.90;;
66485;SDS011;53303;47.476;8.084;2023-11-19T05:57:17;5.38;;;0.95;;
66485;SDS011;53303;47.476;8.084;2023-11-19T05:59:49;5.95;;;1.00;;
66485;SDS011;53303;47.476;8.084;2023-11-19T06:02:17;3.10;;;1.10;;
66485;SDS011;53303;47.476;8.084;2023-11-19T06:04:44;5.55;;;1.02;;
66485;SDS011;53303;47.476;8.084;2023-11-19T06:07:12;4.82;;;1.00;;
66485;SDS011;53303;47.476;8.084;2023-11-19T06:09:38;3.55;;;0.90;;
66485;SDS011;53303;47.476;8.084;2023-11-19T06:12:05;6.13;;;1.10;;
66485;SDS011;53303;47.476;8.084;2023-11-19T06:14:32;4.95;;;1.15;;
66485;SDS011;53303;47.476;8.084;2023-11-19T06:17:00;7.15;;;1.05;;
66485;SDS011;53303;47.476;8.084;2023-11-19T06:19:25;3.97;;;1.00;;
66485;SDS011;53303;47.476;8.084;2023-11-19T06:21:51;6.50;;;1.50;;
66485;SDS011;53303;47.476;8.084;2023-11-19T06:24:17;8.90;;;1.40;;
66485;SDS011;53303;47.476;8.084;2023-11-19T06:26:42;7.90;;;1.05;;
66485;SDS011;53303;47.476;8.084;2023-11-19T06:29:08;4.88;;;0.95;;
66485;SDS011;53303;47.476;8.084;2023-11-19T06:31:33;6.57;;;1.10;;
66485;SDS011;53303;47.476;8.084;2023-11-19T06:33:58;9.95;;;1.60;;
66485;SDS011;53303;47.476;8.084;2023-11-19T06:36:24;6.78;;;1.50;;
66485;SDS011;53303;47.476;8.084;2023-11-19T06:38:52;6.65;;;1.35;;
66485;SDS011;53303;47.476;8.084;2023-11-19T06:41:17;10.15;;;1.88;;
66485;SDS011;53303;47.476;8.084;2023-11-19T06:43:43;9.05;;;1.58;;
66485;SDS011;53303;47.476;8.084;2023-11-19T06:46:15;9.82;;;1.65;;
66485;SDS011;53303;47.476;8.084;2023-11-19T06:48:41;8.93;;;1.30;;
66485;SDS011;53303;47.476;8.084;2023-11-19T06:51:09;8.95;;;1.83;;
66485;SDS011;53303;47.476;8.084;2023-11-19T06:53:34;9.13;;;1.33;;
66485;SDS011;53303;47.476;8.084;2023-11-19T06:56:01;10.18;;;1.52;;
66485;SDS011;53303;47.476;8.084;2023-11-19T06:58:30;10.98;;;1.60;;
66485;SDS011;53303;47.476;8.084;2023-11-19T07:00:56;10.35;;;1.40;;
66485;SDS011;53303;47.476;8.084;2023-11-19T07:03:23;7.10;;;1.30;;
66485;SDS011;53303;47.476;8.084;2023-11-19T07:05:49;8.20;;;1.75;;
66485;SDS011;53303;47.476;8.084;2023-11-19T07:08:17;8.95;;;1.35;;
66485;SDS011;53303;47.476;8.084;2023-11-19T07:10:43;7.38;;;1.40;;
66485;SDS011;53303;47.476;8.084;2023-11-19T07:13:08;9.43;;;1.38;;
66485;SDS011;53303;47.476;8.084;2023-11-19T07:15:36;9.98;;;1.50;;
66485;SDS011;53303;47.476;8.084;2023-11-19T07:18:02;7.35;;;1.35;;
66485;SDS011;53303;47.476;8.084;2023-11-19T07:20:28;11.60;;;1.55;;
66485;SDS011;53303;47.476;8.084;2023-11-19T07:22:53;13.13;;;1.52;;
66485;SDS011;53303;47.476;8.084;2023-11-19T07:25:20;7.28;;;1.17;;
66485;SDS011;53303;47.476;8.084;2023-11-19T07:27:48;4.50;;;0.90;;
66485;SDS011;53303;47.476;8.084;2023-11-19T07:30:14;9.48;;;1.05;;
66485;SDS011;53303;47.476;8.084;2023-11-19T07:32:39;9.30;;;1.60;;
66485;SDS011;53303;47.476;8.084;2023-11-19T07:35:05;13.82;;;1.98;;
66485;SDS011;53303;47.476;8.084;2023-11-19T07:37:31;16.00;;;1.90;;
66485;SDS011;53303;47.476;8.084;2023-11-19T07:39:58;16.65;;;1.52;;
66485;SDS011;53303;47.476;8.084;2023-11-19T07:42:23;18.48;;;2.28;;
66485;SDS011;53303;47.476;8.084;2023-11-19T07:44:49;27.67;;;2.63;;
66485;SDS011;53303;47.476;8.084;2023-11-19T07:47:14;23.20;;;2.50;;
66485;SDS011;53303;47.476;8.084;2023-11-19T07:49:42;16.52;;;2.22;;
66485;SDS011;53303;47.476;8.084;2023-11-19T07:52:09;16.23;;;2.47;;
66485;SDS011;53303;47.476;8.084;2023-11-19T07:54:36;20.65;;;1.90;;
66485;SDS011;53303;47.476;8.084;2023-11-19T07:57:04;14.65;;;1.88;;
66485;SDS011;53303;47.476;8.084;2023-11-19T07:59:30;18.73;;;1.70;;
66485;SDS011;53303;47.476;8.084;2023-11-19T08:01:55;18.92;;;1.70;;
66485;SDS011;53303;47.476;8.084;2023-11-19T08:04:20;10.10;;;1.38;;
66485;SDS011;53303;47.476;8.084;2023-11-19T08:06:46;14.25;;;1.50;;
66485;SDS011;53303;47.476;8.084;2023-11-19T08:09:11;9.48;;;1.20;;
66485;SDS011;53303;47.476;8.084;2023-11-19T08:11:43;8.30;;;1.27;;
66485;SDS011;53303;47.476;8.084;2023-11-19T08:14:08;8.25;;;1.45;;
66485;SDS011;53303;47.476;8.084;2023-11-19T08:16:34;9.18;;;1.17;;
66485;SDS011;53303;47.476;8.084;2023-11-19T08:18:59;6.93;;;1.08;;
66485;SDS011;53303;47.476;8.084;2023-11-19T08:21:25;8.75;;;1.27;;
66485;SDS011;53303;47.476;8.084;2023-11-19T08:23:52;7.97;;;1.15;;
66485;SDS011;53303;47.476;8.084;2023-11-19T08:26:17;5.55;;;1.15;;
66485;SDS011;53303;47.476;8.084;2023-11-19T08:28:43;8.38;;;1.10;;
66485;SDS011;53303;47.476;8.084;2023-11-19T08:31:08;6.80;;;1.08;;
66485;SDS011;53303;47.476;8.084;2023-11-19T08:33:33;9.90;;;1.17;;
66485;SDS011;53303;47.476;8.084;2023-11-19T08:35:59;7.22;;;0.90;;
66485;SDS011;53303;47.476;8.084;2023-11-19T08:38:25;6.18;;;0.82;;
66485;SDS011;53303;47.476;8.084;2023-11-19T08:40:51;2.65;;;0.73;;
66485;SDS011;53303;47.476;8.084;2023-11-19T08:43:17;6.00;;;1.15;;
66485;SDS011;53303;47.476;8.084;2023-11-19T08:45:44;7.30;;;1.00;;
66485;SDS011;53303;47.476;8.084;2023-11-19T08:48:10;6.18;;;1.00;;
66485;SDS011;53303;47.476;8.084;2023-11-19T08:50:35;5.78;;;0.90;;
66485;SDS011;53303;47.476;8.084;2023-11-19T08:53:01;4.82;;;0.80;;
66485;SDS011;53303;47.476;8.084;2023-11-19T08:55:31;6.78;;;1.10;;
66485;SDS011;53303;47.476;8.084;2023-11-19T08:57:57;3.45;;;0.90;;
66485;SDS011;53303;47.476;8.084;2023-11-19T09:00:23;4.53;;;0.90;;
66485;SDS011;53303;47.476;8.084;2023-11-19T09:02:48;5.70;;;0.80;;
66485;SDS011;53303;47.476;8.084;2023-11-19T09:05:14;5.20;;;0.80;;
66485;SDS011;53303;47.476;8.084;2023-11-19T09:07:41;4.70;;;0.77;;
66485;SDS011;53303;47.476;8.084;2023-11-19T09:10:07;6.78;;;0.90;;
66485;SDS011;53303;47.476;8.084;2023-11-19T09:12:33;7.53;;;1.00;;
66485;SDS011;53303;47.476;8.084;2023-11-19T09:14:59;3.88;;;1.23;;
66485;SDS011;53303;47.476;8.084;2023-11-19T09:17:24;4.43;;;1.00;;
66485;SDS011;53303;47.476;8.084;2023-11-19T09:19:50;3.53;;;0.82;;
66485;SDS011;53303;47.476;8.084;2023-11-19T09:22:15;3.50;;;0.82;;
66485;SDS011;53303;47.476;8.084;2023-11-19T09:24:41;4.93;;;0.80;;
66485;SDS011;53303;47.476;8.084;2023-11-19T09:27:09;4.65;;;0.80;;
66485;SDS011;53303;47.476;8.084;2023-11-19T09:29:35;5.35;;;0.93;;
66485;SDS011;53303;47.476;8.084;2023-11-19T09:32:01;4.20;;;0.63;;
66485;SDS011;53303;47.476;8.084;2023-11-19T09:34:26;1.27;;;0.65;;
66485;SDS011;53303;47.476;8.084;2023-11-19T09:36:53;3.85;;;1.00;;
66485;SDS011;53303;47.476;8.084;2023-11-19T09:39:21;3.45;;;0.82;;
66485;SDS011;53303;47.476;8.084;2023-11-19T09:41:49;3.28;;;0.65;;
66485;SDS011;53303;47.476;8.084;2023-11-19T09:44:14;2.90;;;0.73;;
66485;SDS011;53303;47.476;8.084;2023-11-19T09:46:43;3.58;;;0.80;;
66485;SDS011;53303;47.476;8.084;2023-11-19T09:49:09;5.30;;;0.82;;
66485;SDS011;53303;47.476;8.084;2023-11-19T09:51:38;3.20;;;0.80;;
66485;SDS011;53303;47.476;8.084;2023-11-19T09:54:06;4.40;;;0.85;;
66485;SDS011;53303;47.476;8.084;2023-11-19T09:56:32;4.28;;;0.75;;
66485;SDS011;53303;47.476;8.084;2023-11-19T09:58:58;3.58;;;0.90;;
66485;SDS011;53303;47.476;8.084;2023-11-19T10:01:24;5.15;;;0.90;;
66485;SDS011;53303;47.476;8.084;2023-11-19T10:03:52;3.53;;;1.20;;
66485;SDS011;53303;47.476;8.084;2023-11-19T10:06:20;4.88;;;0.80;;
66485;SDS011;53303;47.476;8.084;2023-11-19T10:08:46;2.70;;;0.90;;
66485;SDS011;53303;47.476;8.084;2023-11-19T10:11:11;3.95;;;0.70;;
66485;SDS011;53303;47.476;8.084;2023-11-19T10:13:40;3.67;;;0.90;;
66485;SDS011;53303;47.476;8.084;2023-11-19T10:18:34;3.10;;;0.80;;
66485;SDS011;53303;47.476;8.084;2023-11-19T10:21:03;2.58;;;0.75;;
66485;SDS011;53303;47.476;8.084;2023-11-19T10:23:47;2.65;;;0.70;;
66485;SDS011;53303;47.476;8.084;2023-11-19T10:26:30;3.60;;;0.80;;
66485;SDS011;53303;47.476;8.084;2023-11-19T10:28:56;3.97;;;0.77;;
66485;SDS011;53303;47.476;8.084;2023-11-19T10:31:21;4.95;;;0.93;;
66485;SDS011;53303;47.476;8.084;2023-11-19T10:33:51;4.03;;;0.88;;
66485;SDS011;53303;47.476;8.084;2023-11-19T10:36:19;5.43;;;0.70;;
66485;SDS011;53303;47.476;8.084;2023-11-19T10:38:51;2.38;;;0.73;;
66485;SDS011;53303;47.476;8.084;2023-11-19T10:41:31;5.05;;;0.95;;
66485;SDS011;53303;47.476;8.084;2023-11-19T10:43:57;2.45;;;0.80;;
66485;SDS011;53303;47.476;8.084;2023-11-19T10:46:39;4.60;;;0.77;;
66485;SDS011;53303;47.476;8.084;2023-11-19T10:49:06;4.95;;;0.82;;
66485;SDS011;53303;47.476;8.084;2023-11-19T10:51:34;5.15;;;0.63;;
66485;SDS011;53303;47.476;8.084;2023-11-19T10:54:03;6.43;;;0.93;;
66485;SDS011;53303;47.476;8.084;2023-11-19T10:56:34;3.40;;;0.88;;
66485;SDS011;53303;47.476;8.084;2023-11-19T10:59:00;3.22;;;0.77;;
66485;SDS011;53303;47.476;8.084;2023-11-19T11:01:29;6.53;;;0.90;;
66485;SDS011;53303;47.476;8.084;2023-11-19T11:04:00;4.10;;;1.10;;
66485;SDS011;53303;47.476;8.084;2023-11-19T11:06:29;4.53;;;1.02;;
66485;SDS011;53303;47.476;8.084;2023-11-19T11:08:55;4.75;;;0.80;;
66485;SDS011;53303;47.476;8.084;2023-11-19T11:11:22;5.45;;;1.00;;
66485;SDS011;53303;47.476;8.084;2023-11-19T11:13:48;4.38;;;1.00;;
66485;SDS011;53303;47.476;8.084;2023-11-19T11:16:16;6.78;;;0.93;;
66485;SDS011;53303;47.476;8.084;2023-11-19T11:18:46;3.38;;;0.82;;
66485;SDS011;53303;47.476;8.084;2023-11-19T11:21:15;4.07;;;0.73;;
66485;SDS011;53303;47.476;8.084;2023-11-19T11:29:05;4.57;;;0.73;;
66485;SDS011;53303;47.476;8.084;2023-11-19T11:31:42;4.15;;;0.82;;
66485;SDS011;53303;47.476;8.084;2023-11-19T11:39:38;2.00;;;0.63;;
66485;SDS011;53303;47.476;8.084;2023-11-19T11:50:10;3.90;;;0.77;;
66485;SDS011;53303;47.476;8.084;2023-11-19T11:57:53;3.38;;;0.70;;
66485;SDS011;53303;47.476;8.084;2023-11-19T12:00:30;3.65;;;0.63;;
66485;SDS011;53303;47.476;8.084;2023-11-19T12:02:57;5.10;;;0.70;;
66485;SDS011;53303;47.476;8.084;2023-11-19T12:05:24;5.75;;;0.93;;
66485;SDS011;53303;47.476;8.084;2023-11-19T12:10:24;3.92;;;0.93;;
66485;SDS011;53303;47.476;8.084;2023-11-19T12:12:52;2.85;;;0.70;;
66485;SDS011;53303;47.476;8.084;2023-11-19T12:15:18;2.63;;;0.95;;
66485;SDS011;53303;47.476;8.084;2023-11-19T12:17:50;2.92;;;0.70;;
66485;SDS011;53303;47.476;8.084;2023-11-19T12:20:19;2.22;;;0.80;;
66485;SDS011;53303;47.476;8.084;2023-11-19T12:22:47;4.93;;;0.80;;
66485;SDS011;53303;47.476;8.084;2023-11-19T12:25:14;7.55;;;1.00;;
66485;SDS011;53303;47.476;8.084;2023-11-19T12:27:48;3.47;;;0.77;;
66485;SDS011;53303;47.476;8.084;2023-11-19T12:30:24;3.67;;;0.82;;
66485;SDS011;53303;47.476;8.084;2023-11-19T12:32:54;4.18;;;0.70;;
66485;SDS011;53303;47.476;8.084;2023-11-19T12:35:22;5.13;;;0.90;;
66485;SDS011;53303;47.476;8.084;2023-11-19T12:37:51;5.82;;;1.02;;
66485;SDS011;53303;47.476;8.084;2023-11-19T12:40:20;2.75;;;0.70;;
66485;SDS011;53303;47.476;8.084;2023-11-19T12:42:47;5.38;;;1.00;;
66485;SDS011;53303;47.476;8.084;2023-11-19T12:45:14;4.10;;;0.80;;
66485;SDS011;53303;47.476;8.084;2023-11-19T12:47:41;1.90;;;0.60;;
66485;SDS011;53303;47.476;8.084;2023-11-19T12:50:07;2.72;;;0.68;;
66485;SDS011;53303;47.476;8.084;2023-11-19T12:52:37;2.47;;;0.80;;
66485;SDS011;53303;47.476;8.084;2023-11-19T12:55:05;2.55;;;0.73;;
66485;SDS011;53303;47.476;8.084;2023-11-19T12:57:50;3.78;;;0.90;;
66485;SDS011;53303;47.476;8.084;2023-11-19T13:00:19;4.35;;;0.73;;
66485;SDS011;53303;47.476;8.084;2023-11-19T13:02:47;3.33;;;0.80;;
66485;SDS011;53303;47.476;8.084;2023-11-19T13:08:07;2.35;;;0.80;;
66485;SDS011;53303;47.476;8.084;2023-11-19T13:13:14;4.40;;;0.70;;
66485;SDS011;53303;47.476;8.084;2023-11-19T13:15:40;3.45;;;0.80;;
66485;SDS011;53303;47.476;8.084;2023-11-19T13:18:05;3.47;;;0.93;;
66485;SDS011;53303;47.476;8.084;2023-11-19T13:20:31;4.85;;;1.00;;
66485;SDS011;53303;47.476;8.084;2023-11-19T13:23:00;8.20;;;1.08;;
66485;SDS011;53303;47.476;8.084;2023-11-19T13:25:27;3.03;;;0.55;;
66485;SDS011;53303;47.476;8.084;2023-11-19T13:27:54;4.88;;;0.90;;
66485;SDS011;53303;47.476;8.084;2023-11-19T13:30:20;4.38;;;0.75;;
66485;SDS011;53303;47.476;8.084;2023-11-19T13:32:47;5.35;;;1.13;;
66485;SDS011;53303;47.476;8.084;2023-11-19T13:35:13;3.42;;;0.80;;
66485;SDS011;53303;47.476;8.084;2023-11-19T13:37:42;2.03;;;0.55;;
66485;SDS011;53303;47.476;8.084;2023-11-19T13:40:08;7.18;;;1.10;;
66485;SDS011;53303;47.476;8.084;2023-11-19T13:42:35;2.95;;;0.55;;
66485;SDS011;53303;47.476;8.084;2023-11-19T13:45:06;6.47;;;0.77;;
66485;SDS011;53303;47.476;8.084;2023-11-19T13:47:42;2.22;;;0.70;;
66485;SDS011;53303;47.476;8.084;2023-11-19T13:50:08;3.67;;;0.80;;
66485;SDS011;53303;47.476;8.084;2023-11-19T13:52:38;5.35;;;1.10;;
66485;SDS011;53303;47.476;8.084;2023-11-19T13:55:08;3.35;;;0.73;;
66485;SDS011;53303;47.476;8.084;2023-11-19T13:57:38;4.43;;;0.70;;
66485;SDS011;53303;47.476;8.084;2023-11-19T14:00:05;4.57;;;0.80;;
66485;SDS011;53303;47.476;8.084;2023-11-19T14:02:36;2.20;;;0.60;;
66485;SDS011;53303;47.476;8.084;2023-11-19T14:05:01;4.93;;;0.82;;
66485;SDS011;53303;47.476;8.084;2023-11-19T14:07:30;3.85;;;0.80;;
66485;SDS011;53303;47.476;8.084;2023-11-19T14:09:55;4.20;;;0.80;;
66485;SDS011;53303;47.476;8.084;2023-11-19T14:12:21;4.45;;;0.80;;
66485;SDS011;53303;47.476;8.084;2023-11-19T14:14:46;2.90;;;0.82;;
66485;SDS011;53303;47.476;8.084;2023-11-19T14:17:12;2.58;;;0.60;;
66485;SDS011;53303;47.476;8.084;2023-11-19T14:19:40;5.60;;;1.00;;
66485;SDS011;53303;47.476;8.084;2023-11-19T14:22:06;5.75;;;0.75;;
66485;SDS011;53303;47.476;8.084;2023-11-19T14:24:32;6.97;;;0.90;;
66485;SDS011;53303;47.476;8.084;2023-11-19T14:26:57;4.50;;;0.90;;
66485;SDS011;53303;47.476;8.084;2023-11-19T14:29:24;5.85;;;1.33;;
66485;SDS011;53303;47.476;8.084;2023-11-19T14:31:51;4.88;;;0.93;;
66485;SDS011;53303;47.476;8.084;2023-11-19T14:34:17;6.22;;;0.90;;
66485;SDS011;53303;47.476;8.084;2023-11-19T14:36:44;4.10;;;0.73;;
66485;SDS011;53303;47.476;8.084;2023-11-19T14:39:09;4.43;;;0.73;;
66485;SDS011;53303;47.476;8.084;2023-11-19T14:41:35;2.17;;;0.73;;
66485;SDS011;53303;47.476;8.084;2023-11-19T14:44:03;5.28;;;0.88;;
66485;SDS011;53303;47.476;8.084;2023-11-19T14:46:28;5.68;;;0.80;;
66485;SDS011;53303;47.476;8.084;2023-11-19T14:48:54;3.25;;;0.90;;
66485;SDS011;53303;47.476;8.084;2023-11-19T14:51:20;4.15;;;0.82;;
66485;SDS011;53303;47.476;8.084;2023-11-19T14:53:46;5.25;;;0.80;;
66485;SDS011;53303;47.476;8.084;2023-11-19T14:56:12;3.22;;;0.80;;
66485;SDS011;53303;47.476;8.084;2023-11-19T14:58:38;3.35;;;0.80;;
66485;SDS011;53303;47.476;8.084;2023-11-19T15:01:06;4.97;;;0.80;;
66485;SDS011;53303;47.476;8.084;2023-11-19T15:03:36;5.75;;;0.90;;
66485;SDS011;53303;47.476;8.084;2023-11-19T15:06:01;3.30;;;0.88;;
66485;SDS011;53303;47.476;8.084;2023-11-19T15:08:29;2.15;;;0.65;;
66485;SDS011;53303;47.476;8.084;2023-11-19T15:10:55;4.90;;;0.80;;
66485;SDS011;53303;47.476;8.084;2023-11-19T15:13:22;4.50;;;0.70;;
66485;SDS011;53303;47.476;8.084;2023-11-19T15:15:50;5.25;;;0.77;;
66485;SDS011;53303;47.476;8.084;2023-11-19T15:18:17;5.20;;;0.90;;
66485;SDS011;53303;47.476;8.084;2023-11-19T15:20:44;6.13;;;0.93;;
66485;SDS011;53303;47.476;8.084;2023-11-19T15:23:12;4.50;;;0.70;;
66485;SDS011;53303;47.476;8.084;2023-11-19T15:25:40;4.28;;;0.70;;
66485;SDS011;53303;47.476;8.084;2023-11-19T15:28:06;5.20;;;1.00;;